createdAt,value
2018-09-04T00:03:35.432Z,76.78
2018-09-04T00:08:18.974Z,76.91
2018-09-04T00:13:08.405Z,76.90
2018-09-04T00:17:52.239Z,75.28
2018-09-04T00:22:39.684Z,75.84
2018-09-04T00:27:23.657Z,73.67
2018-09-04T00:32:08.351Z,70.94
2018-09-04T00:36:51.883Z,70.72
2018-09-04T00:41:38.737Z,71.58
2018-09-04T00:46:22.385Z,71.86
2018-09-04T00:51:05.975Z,72.15
2018-09-04T00:55:49.661Z,71.45
2018-09-04T01:00:33.301Z,70.96
2018-09-04T01:05:16.887Z,70.91
2018-09-04T01:10:00.574Z,74.15
2018-09-04T01:14:45.254Z,77.39
2018-09-04T01:19:28.902Z,79.31
2018-09-04T01:24:13.651Z,79.88
2018-09-04T01:28:57.155Z,78.81
2018-09-04T01:33:41.011Z,78.50
2018-09-04T01:38:24.524Z,77.52
2018-09-04T01:43:08.190Z,78.40
2018-09-04T01:47:51.759Z,79.02
2018-09-04T01:52:40.018Z,78.03
2018-09-04T01:57:23.593Z,77.92
2018-09-04T02:02:08.327Z,78.08
2018-09-04T02:06:51.879Z,78.75
2018-09-04T02:11:35.293Z,76.88
2018-09-04T02:16:18.844Z,76.69
2018-09-04T02:21:03.396Z,77.79
2018-09-04T02:25:47.128Z,78.84
2018-09-04T02:30:33.778Z,79.01
2018-09-04T02:35:17.377Z,78.61
2018-09-04T02:40:00.982Z,78.54
2018-09-04T02:44:50.481Z,79.72
2018-09-04T02:49:34.110Z,80.29
2018-09-04T02:54:21.591Z,78.47
2018-09-04T02:59:05.106Z,77.29
2018-09-04T03:03:51.594Z,78.32
2018-09-04T03:08:35.070Z,77.13
2018-09-04T03:13:19.667Z,77.50
2018-09-04T03:18:03.397Z,75.65
2018-09-04T03:22:47.191Z,75.82
2018-09-04T03:27:30.774Z,75.86
2018-09-04T03:32:15.368Z,75.72
2018-09-04T03:36:58.998Z,75.78
2018-09-04T03:41:43.713Z,77.01
2018-09-04T03:46:27.357Z,77.06
2018-09-04T03:51:11.138Z,75.36
2018-09-04T03:55:54.770Z,74.78
2018-09-04T04:00:39.667Z,74.96
2018-09-04T04:05:23.241Z,75.59
2018-09-04T04:10:06.772Z,74.82
2018-09-04T04:14:50.412Z,76.00
2018-09-04T04:19:34.015Z,75.52
2018-09-04T04:24:18.694Z,75.92
2018-09-04T04:29:02.229Z,76.96
2018-09-04T04:33:45.782Z,77.27
2018-09-04T04:38:39.817Z,74.94
2018-09-04T04:43:23.603Z,74.60
2018-09-04T04:48:07.259Z,74.25
2018-09-04T04:52:50.900Z,74.42
2018-09-04T04:57:34.677Z,73.13
2018-09-04T05:02:18.470Z,72.86
2018-09-04T05:07:02.088Z,72.72
2018-09-04T05:11:45.730Z,74.18
2018-09-04T05:16:29.358Z,73.35
2018-09-04T05:21:13.290Z,74.28
2018-09-04T05:25:56.893Z,76.03
2018-09-04T05:30:41.521Z,75.76
2018-09-04T05:35:25.175Z,74.64
2018-09-04T05:40:08.977Z,72.52
2018-09-04T05:44:52.728Z,71.84
2018-09-04T05:49:36.288Z,72.78
2018-09-04T05:54:20.080Z,71.83
2018-09-04T05:59:03.787Z,72.46
2018-09-04T06:03:47.339Z,70.24
2018-09-04T06:08:30.947Z,69.72
2018-09-04T06:13:14.718Z,69.06
2018-09-04T06:17:58.289Z,67.84
2018-09-04T06:22:42.088Z,66.76
2018-09-04T06:27:25.562Z,66.21
2018-09-04T06:32:10.440Z,67.62
2018-09-04T06:36:54.132Z,64.39
2018-09-04T06:41:39.770Z,63.02
2018-09-04T06:46:23.546Z,62.44
2018-09-04T06:51:08.346Z,61.17
2018-09-04T06:55:51.898Z,59.95
2018-09-04T07:00:39.437Z,60.12
2018-09-04T07:05:22.991Z,60.30
2018-09-04T07:10:06.928Z,62.97
2018-09-04T07:14:50.482Z,62.07
2018-09-04T07:19:34.272Z,56.56
2018-09-04T07:24:18.094Z,56.62
2018-09-04T07:29:01.648Z,53.44
2018-09-04T07:33:45.547Z,53.19
2018-09-04T07:38:29.140Z,52.82
2018-09-04T07:43:13.805Z,52.68
2018-09-04T07:47:58.461Z,53.06
2018-09-04T07:52:42.198Z,53.21
2018-09-04T07:57:25.867Z,50.37
2018-09-04T08:02:09.807Z,47.07
2018-09-04T08:06:53.503Z,46.42
2018-09-04T08:11:37.356Z,45.89
2018-09-04T08:16:20.939Z,44.83
2018-09-04T08:21:05.571Z,44.75
2018-09-04T08:25:49.678Z,44.74
2018-09-04T08:30:38.767Z,41.73
2018-09-04T08:35:22.307Z,41.96
2018-09-04T08:40:09.096Z,41.70
2018-09-04T08:44:52.608Z,43.39
2018-09-04T08:49:36.473Z,42.52
2018-09-04T08:54:19.775Z,42.25
2018-09-04T08:59:03.649Z,42.44
2018-09-04T09:03:48.267Z,40.66
2018-09-04T09:08:31.823Z,39.62
2018-09-04T09:13:19.048Z,41.05
2018-09-04T09:18:02.703Z,39.50
2018-09-04T09:22:46.323Z,38.96
2018-09-04T09:27:29.738Z,38.24
2018-09-04T09:32:14.367Z,37.34
2018-09-04T09:36:57.966Z,39.05
2018-09-04T09:41:45.269Z,37.60
2018-09-04T09:46:32.354Z,38.13
2018-09-04T09:51:19.680Z,37.35
2018-09-04T09:56:03.316Z,36.28
2018-09-04T10:00:54.331Z,34.55
2018-09-04T10:05:37.759Z,35.26
2018-09-04T10:10:21.607Z,35.79
2018-09-04T10:15:04.945Z,36.36
2018-09-04T10:19:48.707Z,36.60
2018-09-04T10:24:32.013Z,36.38
2018-09-04T10:29:16.266Z,37.59
2018-09-04T10:33:59.790Z,35.46
2018-09-04T10:38:43.138Z,38.48
2018-09-04T10:43:32.570Z,37.21
2018-09-04T10:48:20.331Z,36.39
2018-09-04T10:53:03.763Z,35.59
2018-09-04T10:57:47.220Z,36.48
2018-09-04T11:02:31.297Z,36.16
2018-09-04T11:07:14.778Z,37.84
2018-09-04T11:11:58.360Z,36.83
2018-09-04T14:59:11.462Z,48.31
2018-09-04T15:03:55.997Z,50.87
2018-09-04T15:08:39.434Z,52.17
2018-09-04T15:13:24.396Z,52.40
2018-09-04T15:18:07.837Z,52.70
2018-09-04T15:22:51.777Z,54.32
2018-09-04T15:27:36.274Z,55.20
2018-09-04T15:32:20.273Z,54.89
2018-09-04T15:37:04.380Z,56.13
2018-09-04T15:41:47.845Z,55.81
2018-09-04T15:46:33.422Z,56.04
2018-09-04T15:51:17.146Z,57.00
2018-09-04T15:56:01.846Z,57.13
2018-09-04T16:00:45.644Z,56.98
2018-09-04T16:05:29.314Z,57.04
2018-09-04T16:10:13.048Z,56.93
2018-09-04T16:14:56.962Z,57.45
2018-09-04T16:19:40.571Z,57.51
2018-09-04T16:24:24.171Z,58.27
2018-09-04T16:29:07.702Z,58.97
2018-09-04T16:33:52.097Z,58.87
2018-09-04T16:38:36.402Z,58.95
2018-09-04T16:43:20.129Z,58.90
2018-09-04T16:48:03.736Z,60.10
2018-09-04T16:52:47.465Z,59.33
2018-09-04T16:57:34.677Z,59.47
2018-09-04T17:02:19.239Z,61.25
2018-09-04T17:07:02.627Z,60.51
2018-09-04T17:11:46.490Z,60.93
2018-09-04T17:16:32.163Z,59.78
2018-09-04T17:21:15.876Z,62.08
2018-09-04T17:26:00.586Z,64.46
2018-09-04T17:30:47.099Z,63.12
2018-09-04T17:35:34.457Z,62.03
2018-09-04T17:40:18.660Z,63.86
2018-09-04T17:45:03.247Z,65.99
2018-09-04T17:49:46.683Z,64.76
2018-09-04T17:54:33.669Z,64.12
2018-09-04T17:59:18.151Z,64.60
2018-09-04T18:04:01.719Z,63.55
2018-09-04T18:08:48.227Z,64.60
2018-09-04T18:13:32.474Z,64.35
2018-09-04T18:18:24.503Z,63.93
2018-09-04T18:23:08.027Z,63.07
2018-09-04T18:27:51.510Z,63.42
2018-09-04T18:32:36.060Z,64.81
2018-09-04T18:37:19.347Z,65.85
2018-09-04T18:42:05.568Z,63.89
2018-09-04T18:46:48.936Z,64.07
2018-09-04T18:51:33.396Z,66.08
2018-09-04T18:56:16.717Z,69.01
2018-09-04T19:01:00.186Z,69.11
2018-09-04T19:05:44.826Z,69.77
2018-09-04T19:10:28.612Z,70.33
2018-09-04T19:15:15.482Z,68.87
2018-09-04T19:19:58.978Z,67.52
2018-09-04T19:24:43.508Z,68.61
2018-09-04T19:29:26.876Z,69.22
2018-09-04T19:34:11.040Z,69.75
2018-09-04T19:38:54.486Z,70.22
2018-09-04T19:43:39.441Z,69.63
2018-09-04T19:48:22.911Z,69.36
2018-09-04T19:53:06.491Z,67.98
2018-09-04T19:57:50.741Z,66.59
2018-09-04T20:02:34.276Z,64.89
2018-09-04T20:07:18.479Z,63.65
2018-09-04T20:12:06.229Z,62.96
2018-09-04T20:16:49.657Z,61.80
2018-09-04T20:21:36.167Z,61.54
2018-09-04T20:26:19.494Z,60.38
2018-09-04T20:31:03.355Z,59.98
2018-09-04T20:35:47.731Z,59.88
2018-09-04T20:40:31.239Z,60.73
2018-09-04T20:45:14.873Z,60.10
2018-09-04T20:49:58.179Z,58.40
2018-09-04T20:54:42.177Z,58.15
2018-09-04T20:59:36.367Z,58.04
2018-09-04T21:04:30.728Z,57.28
2018-09-04T21:09:39.499Z,57.70
2018-09-04T21:14:23.139Z,56.16
2018-09-04T21:19:06.557Z,56.35
2018-09-04T21:23:53.929Z,56.53
2018-09-04T21:28:38.334Z,56.10
2018-09-04T21:33:22.053Z,56.29
2018-09-04T21:38:05.482Z,55.55
2018-09-04T21:42:49.234Z,53.86
2018-09-04T21:47:32.811Z,53.71
2018-09-04T21:52:19.571Z,53.83
2018-09-04T21:57:03.012Z,54.14
2018-09-04T22:01:47.638Z,54.72
2018-09-04T22:06:31.066Z,54.49
2018-09-04T22:11:18.862Z,54.23
2018-09-04T22:16:02.518Z,54.05
2018-09-04T22:20:45.797Z,53.83
2018-09-04T22:25:30.580Z,54.74
2018-09-04T22:30:15.280Z,52.92
2018-09-04T22:34:58.959Z,53.50
2018-09-04T22:39:42.448Z,53.87
2018-09-04T22:44:27.255Z,55.15
2018-09-04T22:49:10.753Z,54.72
2018-09-04T22:53:54.418Z,55.56
2018-09-04T22:58:38.028Z,56.83
2018-09-04T23:03:21.550Z,57.24
2018-09-04T23:08:05.019Z,58.19
2018-09-04T23:12:51.759Z,57.12
2018-09-04T23:17:35.246Z,57.71
2018-09-04T23:22:19.943Z,57.89
2018-09-04T23:27:03.560Z,57.73
2018-09-04T23:31:48.352Z,58.82
2018-09-04T23:36:31.922Z,57.48
2018-09-04T23:41:16.518Z,57.93
2018-09-04T23:46:00.001Z,58.02
2018-09-04T23:50:43.524Z,58.48
2018-09-04T23:55:26.999Z,59.92
